sensor_id;sensor_type;location;lat;lon;timestamp;temperature;humidity
76384;SHT30;65204;48.606;7.598;2022-12-05T00:00:07;6.49;76.68
76384;SHT30;65204;48.606;7.598;2022-12-05T00:00:38;6.49;76.67
76384;SHT30;65204;48.606;7.598;2022-12-05T00:01:43;6.49;76.69
76384;SHT30;65204;48.606;7.598;2022-12-05T00:02:13;6.49;76.67
76384;SHT30;65204;48.606;7.598;2022-12-05T00:02:44;6.49;76.66
76384;SHT30;65204;48.606;7.598;2022-12-05T00:03:14;6.46;76.65
76384;SHT30;65204;48.606;7.598;2022-12-05T00:03:46;6.48;76.72
76384;SHT30;65204;48.606;7.598;2022-12-05T00:04:17;6.49;76.73
76384;SHT30;65204;48.606;7.598;2022-12-05T00:04:47;6.48;76.66
76384;SHT30;65204;48.606;7.598;2022-12-05T00:05:18;6.46;76.74
76384;SHT30;65204;48.606;7.598;2022-12-05T00:05:48;6.48;76.69
76384;SHT30;65204;48.606;7.598;2022-12-05T00:06:20;6.46;76.74
76384;SHT30;65204;48.606;7.598;2022-12-05T00:06:51;6.46;76.61
76384;SHT30;65204;48.606;7.598;2022-12-05T00:07:21;6.45;76.71
76384;SHT30;65204;48.606;7.598;2022-12-05T00:07:52;6.48;76.70
76384;SHT30;65204;48.606;7.598;2022-12-05T00:08:22;6.46;76.77
76384;SHT30;65204;48.606;7.598;2022-12-05T00:08:53;6.46;76.76
76384;SHT30;65204;48.606;7.598;2022-12-05T00:09:23;6.46;76.77
76384;SHT30;65204;48.606;7.598;2022-12-05T00:09:53;6.43;76.82
76384;SHT30;65204;48.606;7.598;2022-12-05T00:10:23;6.46;76.79
76384;SHT30;65204;48.606;7.598;2022-12-05T00:10:54;6.43;76.90
76384;SHT30;65204;48.606;7.598;2022-12-05T00:11:29;6.45;76.82
76384;SHT30;65204;48.606;7.598;2022-12-05T00:12:00;6.45;76.88
76384;SHT30;65204;48.606;7.598;2022-12-05T00:12:30;6.46;76.93
76384;SHT30;65204;48.606;7.598;2022-12-05T00:13:01;6.45;76.81
76384;SHT30;65204;48.606;7.598;2022-12-05T00:13:31;6.46;76.86
76384;SHT30;65204;48.606;7.598;2022-12-05T00:14:02;6.48;76.77
76384;SHT30;65204;48.606;7.598;2022-12-05T00:14:33;6.46;76.72
76384;SHT30;65204;48.606;7.598;2022-12-05T00:15:03;6.45;76.73
76384;SHT30;65204;48.606;7.598;2022-12-05T00:15:38;6.46;76.70
76384;SHT30;65204;48.606;7.598;2022-12-05T00:16:11;6.45;76.82
76384;SHT30;65204;48.606;7.598;2022-12-05T00:16:42;6.46;76.67
76384;SHT30;65204;48.606;7.598;2022-12-05T00:17:13;6.48;76.73
76384;SHT30;65204;48.606;7.598;2022-12-05T00:17:43;6.50;76.73
76384;SHT30;65204;48.606;7.598;2022-12-05T00:18:13;6.45;76.70
76384;SHT30;65204;48.606;7.598;2022-12-05T00:18:44;6.49;76.72
76384;SHT30;65204;48.606;7.598;2022-12-05T00:19:15;6.48;76.68
76384;SHT30;65204;48.606;7.598;2022-12-05T00:19:45;6.49;76.86
76384;SHT30;65204;48.606;7.598;2022-12-05T00:20:16;6.46;76.91
76384;SHT30;65204;48.606;7.598;2022-12-05T00:20:47;6.45;76.96
76384;SHT30;65204;48.606;7.598;2022-12-05T00:21:20;6.46;77.05
76384;SHT30;65204;48.606;7.598;2022-12-05T00:21:51;6.46;77.07
76384;SHT30;65204;48.606;7.598;2022-12-05T00:22:21;6.46;76.78
76384;SHT30;65204;48.606;7.598;2022-12-05T00:22:52;6.48;76.70
76384;SHT30;65204;48.606;7.598;2022-12-05T00:23:22;6.46;76.70
76384;SHT30;65204;48.606;7.598;2022-12-05T00:23:54;6.48;76.77
76384;SHT30;65204;48.606;7.598;2022-12-05T00:24:24;6.48;76.73
76384;SHT30;65204;48.606;7.598;2022-12-05T00:24:55;6.48;76.62
76384;SHT30;65204;48.606;7.598;2022-12-05T00:25:26;6.50;76.61
76384;SHT30;65204;48.606;7.598;2022-12-05T00:25:56;6.49;76.57
76384;SHT30;65204;48.606;7.598;2022-12-05T00:26:30;6.53;76.61
76384;SHT30;65204;48.606;7.598;2022-12-05T00:27:01;6.52;76.65
76384;SHT30;65204;48.606;7.598;2022-12-05T00:27:31;6.53;76.72
76384;SHT30;65204;48.606;7.598;2022-12-05T00:28:02;6.53;76.76
76384;SHT30;65204;48.606;7.598;2022-12-05T00:28:33;6.52;76.74
76384;SHT30;65204;48.606;7.598;2022-12-05T00:29:04;6.52;76.69
76384;SHT30;65204;48.606;7.598;2022-12-05T00:29:35;6.54;76.65
76384;SHT30;65204;48.606;7.598;2022-12-05T00:30:06;6.49;76.66
76384;SHT30;65204;48.606;7.598;2022-12-05T00:30:39;6.53;76.58
76384;SHT30;65204;48.606;7.598;2022-12-05T00:31:12;6.53;76.63
76384;SHT30;65204;48.606;7.598;2022-12-05T00:31:43;6.54;76.73
76384;SHT30;65204;48.606;7.598;2022-12-05T00:32:14;6.53;76.76
76384;SHT30;65204;48.606;7.598;2022-12-05T00:32:44;6.54;76.74
76384;SHT30;65204;48.606;7.598;2022-12-05T00:33:15;6.54;76.63
76384;SHT30;65204;48.606;7.598;2022-12-05T00:33:46;6.54;76.55
76384;SHT30;65204;48.606;7.598;2022-12-05T00:34:16;6.50;76.51
76384;SHT30;65204;48.606;7.598;2022-12-05T00:34:47;6.50;76.57
76384;SHT30;65204;48.606;7.598;2022-12-05T00:35:17;6.52;76.65
76384;SHT30;65204;48.606;7.598;2022-12-05T00:35:48;6.50;76.61
76384;SHT30;65204;48.606;7.598;2022-12-05T00:36:24;6.50;76.65
76384;SHT30;65204;48.606;7.598;2022-12-05T00:36:54;6.52;76.68
76384;SHT30;65204;48.606;7.598;2022-12-05T00:37:24;6.52;76.72
76384;SHT30;65204;48.606;7.598;2022-12-05T00:37:55;6.49;76.79
76384;SHT30;65204;48.606;7.598;2022-12-05T00:38:25;6.52;76.78
76384;SHT30;65204;48.606;7.598;2022-12-05T00:38:58;6.48;76.84
76384;SHT30;65204;48.606;7.598;2022-12-05T00:39:29;6.48;76.84
76384;SHT30;65204;48.606;7.598;2022-12-05T00:39:59;6.50;76.78
76384;SHT30;65204;48.606;7.598;2022-12-05T00:40:30;6.49;76.93
76384;SHT30;65204;48.606;7.598;2022-12-05T00:41:08;6.49;76.93
76384;SHT30;65204;48.606;7.598;2022-12-05T00:41:39;6.49;76.98
76384;SHT30;65204;48.606;7.598;2022-12-05T00:42:09;6.49;76.90
76384;SHT30;65204;48.606;7.598;2022-12-05T00:42:39;6.49;76.93
76384;SHT30;65204;48.606;7.598;2022-12-05T00:43:10;6.50;76.94
76384;SHT30;65204;48.606;7.598;2022-12-05T00:43:40;6.49;76.91
76384;SHT30;65204;48.606;7.598;2022-12-05T00:44:11;6.49;76.98
76384;SHT30;65204;48.606;7.598;2022-12-05T00:44:42;6.49;77.00
76384;SHT30;65204;48.606;7.598;2022-12-05T00:45:13;6.49;76.95
76384;SHT30;65204;48.606;7.598;2022-12-05T00:45:43;6.48;76.93
76384;SHT30;65204;48.606;7.598;2022-12-05T00:46:16;6.49;76.90
76384;SHT30;65204;48.606;7.598;2022-12-05T00:46:46;6.49;76.95
76384;SHT30;65204;48.606;7.598;2022-12-05T00:47:17;6.49;76.91
76384;SHT30;65204;48.606;7.598;2022-12-05T00:47:47;6.46;76.94
76384;SHT30;65204;48.606;7.598;2022-12-05T00:48:17;6.46;77.06
76384;SHT30;65204;48.606;7.598;2022-12-05T00:48:48;6.49;77.05
76384;SHT30;65204;48.606;7.598;2022-12-05T00:49:18;6.48;77.09
76384;SHT30;65204;48.606;7.598;2022-12-05T00:49:48;6.48;77.18
76384;SHT30;65204;48.606;7.598;2022-12-05T00:50:19;6.48;77.20
76384;SHT30;65204;48.606;7.598;2022-12-05T00:50:49;6.45;77.07
76384;SHT30;65204;48.606;7.598;2022-12-05T00:51:25;6.45;77.07
76384;SHT30;65204;48.606;7.598;2022-12-05T00:51:58;6.46;77.10
76384;SHT30;65204;48.606;7.598;2022-12-05T00:52:29;6.45;76.91
76384;SHT30;65204;48.606;7.598;2022-12-05T00:52:59;6.45;76.90
76384;SHT30;65204;48.606;7.598;2022-12-05T00:53:30;6.46;77.05
76384;SHT30;65204;48.606;7.598;2022-12-05T00:54:05;6.45;77.03
76384;SHT30;65204;48.606;7.598;2022-12-05T00:54:37;6.46;77.00
76384;SHT30;65204;48.606;7.598;2022-12-05T00:55:08;6.46;77.09
76384;SHT30;65204;48.606;7.598;2022-12-05T00:55:38;6.48;77.12
76384;SHT30;65204;48.606;7.598;2022-12-05T00:56:16;6.46;77.13
76384;SHT30;65204;48.606;7.598;2022-12-05T00:56:47;6.46;77.05
76384;SHT30;65204;48.606;7.598;2022-12-05T00:57:18;6.48;76.95
76384;SHT30;65204;48.606;7.598;2022-12-05T00:57:48;6.49;76.92
76384;SHT30;65204;48.606;7.598;2022-12-05T00:58:18;6.49;76.97
76384;SHT30;65204;48.606;7.598;2022-12-05T00:58:51;6.49;76.88
76384;SHT30;65204;48.606;7.598;2022-12-05T00:59:22;6.50;76.87
76384;SHT30;65204;48.606;7.598;2022-12-05T00:59:53;6.46;76.90
76384;SHT30;65204;48.606;7.598;2022-12-05T01:00:23;6.46;76.91
76384;SHT30;65204;48.606;7.598;2022-12-05T01:00:54;6.48;76.85
76384;SHT30;65204;48.606;7.598;2022-12-05T01:01:36;6.43;76.83
76384;SHT30;65204;48.606;7.598;2022-12-05T01:02:07;6.48;76.80
76384;SHT30;65204;48.606;7.598;2022-12-05T01:02:37;6.48;76.82
76384;SHT30;65204;48.606;7.598;2022-12-05T01:03:08;6.46;76.88
76384;SHT30;65204;48.606;7.598;2022-12-05T01:03:38;6.46;76.87
76384;SHT30;65204;48.606;7.598;2022-12-05T01:04:12;6.46;76.83
76384;SHT30;65204;48.606;7.598;2022-12-05T01:04:42;6.45;76.81
76384;SHT30;65204;48.606;7.598;2022-12-05T01:05:12;6.45;76.84
76384;SHT30;65204;48.606;7.598;2022-12-05T01:05:43;6.42;76.86
76384;SHT30;65204;48.606;7.598;2022-12-05T01:06:14;6.42;76.89
76384;SHT30;65204;48.606;7.598;2022-12-05T01:06:45;6.45;76.91
76384;SHT30;65204;48.606;7.598;2022-12-05T01:07:15;6.42;76.84
76384;SHT30;65204;48.606;7.598;2022-12-05T01:07:46;6.42;76.83
76384;SHT30;65204;48.606;7.598;2022-12-05T01:08:16;6.42;76.79
76384;SHT30;65204;48.606;7.598;2022-12-05T01:08:47;6.42;76.81
76384;SHT30;65204;48.606;7.598;2022-12-05T01:09:19;6.39;76.88
76384;SHT30;65204;48.606;7.598;2022-12-05T01:09:49;6.36;76.82
76384;SHT30;65204;48.606;7.598;2022-12-05T01:10:21;6.38;76.79
76384;SHT30;65204;48.606;7.598;2022-12-05T01:10:55;6.35;76.84
76384;SHT30;65204;48.606;7.598;2022-12-05T01:11:26;6.35;76.85
76384;SHT30;65204;48.606;7.598;2022-12-05T01:11:57;6.33;76.83
76384;SHT30;65204;48.606;7.598;2022-12-05T01:12:27;6.31;76.86
76384;SHT30;65204;48.606;7.598;2022-12-05T01:12:57;6.31;76.82
76384;SHT30;65204;48.606;7.598;2022-12-05T01:13:28;6.29;76.98
76384;SHT30;65204;48.606;7.598;2022-12-05T01:13:59;6.29;76.97
76384;SHT30;65204;48.606;7.598;2022-12-05T01:14:30;6.29;77.01
76384;SHT30;65204;48.606;7.598;2022-12-05T01:15:00;6.25;77.14
76384;SHT30;65204;48.606;7.598;2022-12-05T01:15:30;6.26;77.15
76384;SHT30;65204;48.606;7.598;2022-12-05T01:16:01;6.26;77.23
76384;SHT30;65204;48.606;7.598;2022-12-05T01:16:34;6.28;77.25
76384;SHT30;65204;48.606;7.598;2022-12-05T01:17:05;6.25;77.28
76384;SHT30;65204;48.606;7.598;2022-12-05T01:17:35;6.25;77.29
76384;SHT30;65204;48.606;7.598;2022-12-05T01:18:05;6.25;77.33
76384;SHT30;65204;48.606;7.598;2022-12-05T01:18:36;6.24;77.33
76384;SHT30;65204;48.606;7.598;2022-12-05T01:19:11;6.26;77.41
76384;SHT30;65204;48.606;7.598;2022-12-05T01:19:41;6.26;77.42
76384;SHT30;65204;48.606;7.598;2022-12-05T01:20:12;6.26;77.38
76384;SHT30;65204;48.606;7.598;2022-12-05T01:20:43;6.25;77.45
76384;SHT30;65204;48.606;7.598;2022-12-05T01:21:14;6.29;77.40
76384;SHT30;65204;48.606;7.598;2022-12-05T01:21:44;6.31;77.27
76384;SHT30;65204;48.606;7.598;2022-12-05T01:22:16;6.29;77.45
76384;SHT30;65204;48.606;7.598;2022-12-05T01:22:47;6.31;77.40
76384;SHT30;65204;48.606;7.598;2022-12-05T01:23:18;6.31;77.44
76384;SHT30;65204;48.606;7.598;2022-12-05T01:23:49;6.31;77.42
76384;SHT30;65204;48.606;7.598;2022-12-05T01:24:20;6.32;77.44
76384;SHT30;65204;48.606;7.598;2022-12-05T01:24:50;6.35;77.45
76384;SHT30;65204;48.606;7.598;2022-12-05T01:25:21;6.31;77.35
76384;SHT30;65204;48.606;7.598;2022-12-05T01:25:51;6.33;77.35
76384;SHT30;65204;48.606;7.598;2022-12-05T01:26:22;6.33;77.37
76384;SHT30;65204;48.606;7.598;2022-12-05T01:26:53;6.35;77.28
76384;SHT30;65204;48.606;7.598;2022-12-05T01:27:24;6.36;77.35
76384;SHT30;65204;48.606;7.598;2022-12-05T01:27:55;6.36;77.38
76384;SHT30;65204;48.606;7.598;2022-12-05T01:28:25;6.33;77.39
76384;SHT30;65204;48.606;7.598;2022-12-05T01:28:55;6.36;77.33
76384;SHT30;65204;48.606;7.598;2022-12-05T01:29:26;6.36;77.28
76384;SHT30;65204;48.606;7.598;2022-12-05T01:29:57;6.38;77.32
76384;SHT30;65204;48.606;7.598;2022-12-05T01:30:27;6.38;77.33
76384;SHT30;65204;48.606;7.598;2022-12-05T01:31:03;6.38;77.38
76384;SHT30;65204;48.606;7.598;2022-12-05T01:31:35;6.39;77.36
76384;SHT30;65204;48.606;7.598;2022-12-05T01:32:06;6.43;77.23
76384;SHT30;65204;48.606;7.598;2022-12-05T01:32:36;6.39;77.28
76384;SHT30;65204;48.606;7.598;2022-12-05T01:33:07;6.41;77.34
76384;SHT30;65204;48.606;7.598;2022-12-05T01:33:38;6.39;77.35
76384;SHT30;65204;48.606;7.598;2022-12-05T01:34:13;6.41;77.34
76384;SHT30;65204;48.606;7.598;2022-12-05T01:34:44;6.39;77.31
76384;SHT30;65204;48.606;7.598;2022-12-05T01:35:15;6.41;77.29
76384;SHT30;65204;48.606;7.598;2022-12-05T01:35:45;6.43;77.28
76384;SHT30;65204;48.606;7.598;2022-12-05T01:36:16;6.41;77.22
76384;SHT30;65204;48.606;7.598;2022-12-05T01:36:47;6.42;77.21
76384;SHT30;65204;48.606;7.598;2022-12-05T01:37:17;6.42;77.22
76384;SHT30;65204;48.606;7.598;2022-12-05T01:37:47;6.43;77.26
76384;SHT30;65204;48.606;7.598;2022-12-05T01:38:18;6.43;77.22
76384;SHT30;65204;48.606;7.598;2022-12-05T01:38:49;6.45;77.23
76384;SHT30;65204;48.606;7.598;2022-12-05T01:39:20;6.43;77.19
76384;SHT30;65204;48.606;7.598;2022-12-05T01:39:50;6.42;77.29
76384;SHT30;65204;48.606;7.598;2022-12-05T01:40:21;6.46;77.31
76384;SHT30;65204;48.606;7.598;2022-12-05T01:41:02;6.46;77.34
76384;SHT30;65204;48.606;7.598;2022-12-05T01:41:36;6.49;77.25
76384;SHT30;65204;48.606;7.598;2022-12-05T01:42:07;6.45;77.14
76384;SHT30;65204;48.606;7.598;2022-12-05T01:42:38;6.48;77.16
76384;SHT30;65204;48.606;7.598;2022-12-05T01:43:16;6.49;77.23
76384;SHT30;65204;48.606;7.598;2022-12-05T01:43:57;6.48;77.15
76384;SHT30;65204;48.606;7.598;2022-12-05T01:45:02;6.49;77.27
76384;SHT30;65204;48.606;7.598;2022-12-05T01:45:37;6.48;77.39
76384;SHT30;65204;48.606;7.598;2022-12-05T01:46:08;6.48;77.33
76384;SHT30;65204;48.606;7.598;2022-12-05T01:46:44;6.50;77.17
76384;SHT30;65204;48.606;7.598;2022-12-05T01:47:16;6.49;77.15
76384;SHT30;65204;48.606;7.598;2022-12-05T01:47:47;6.50;77.12
76384;SHT30;65204;48.606;7.598;2022-12-05T01:48:25;6.46;77.16
76384;SHT30;65204;48.606;7.598;2022-12-05T01:49:04;6.48;77.20
76384;SHT30;65204;48.606;7.598;2022-12-05T01:49:38;6.49;77.19
76384;SHT30;65204;48.606;7.598;2022-12-05T01:50:11;6.48;77.20
76384;SHT30;65204;48.606;7.598;2022-12-05T01:50:42;6.48;77.22
76384;SHT30;65204;48.606;7.598;2022-12-05T01:51:13;6.49;77.21
76384;SHT30;65204;48.606;7.598;2022-12-05T01:51:49;6.49;77.18
76384;SHT30;65204;48.606;7.598;2022-12-05T01:52:22;6.50;77.23
76384;SHT30;65204;48.606;7.598;2022-12-05T01:52:54;6.50;77.18
76384;SHT30;65204;48.606;7.598;2022-12-05T01:53:25;6.49;77.27
76384;SHT30;65204;48.606;7.598;2022-12-05T01:53:56;6.49;77.26
76384;SHT30;65204;48.606;7.598;2022-12-05T01:54:26;6.50;77.05
76384;SHT30;65204;48.606;7.598;2022-12-05T01:55:09;6.50;77.08
76384;SHT30;65204;48.606;7.598;2022-12-05T01:55:41;6.49;77.16
76384;SHT30;65204;48.606;7.598;2022-12-05T01:56:12;6.48;77.15
76384;SHT30;65204;48.606;7.598;2022-12-05T01:56:46;6.49;77.10
76384;SHT30;65204;48.606;7.598;2022-12-05T01:57:17;6.49;77.12
76384;SHT30;65204;48.606;7.598;2022-12-05T01:57:48;6.48;77.12
76384;SHT30;65204;48.606;7.598;2022-12-05T01:58:18;6.49;77.11
76384;SHT30;65204;48.606;7.598;2022-12-05T01:58:50;6.52;77.09
76384;SHT30;65204;48.606;7.598;2022-12-05T01:59:22;6.53;77.02
76384;SHT30;65204;48.606;7.598;2022-12-05T01:59:59;6.56;77.01
76384;SHT30;65204;48.606;7.598;2022-12-05T02:00:31;6.53;77.02
76384;SHT30;65204;48.606;7.598;2022-12-05T02:01:02;6.53;77.05
76384;SHT30;65204;48.606;7.598;2022-12-05T02:01:32;6.57;77.04
76384;SHT30;65204;48.606;7.598;2022-12-05T02:02:03;6.56;76.99
76384;SHT30;65204;48.606;7.598;2022-12-05T02:02:34;6.53;76.94
76384;SHT30;65204;48.606;7.598;2022-12-05T02:03:07;6.57;76.99
76384;SHT30;65204;48.606;7.598;2022-12-05T02:03:39;6.53;77.07
76384;SHT30;65204;48.606;7.598;2022-12-05T02:04:10;6.52;77.08
76384;SHT30;65204;48.606;7.598;2022-12-05T02:04:49;6.54;77.07
76384;SHT30;65204;48.606;7.598;2022-12-05T02:05:29;6.53;77.04
76384;SHT30;65204;48.606;7.598;2022-12-05T02:06:00;6.56;77.00
76384;SHT30;65204;48.606;7.598;2022-12-05T02:06:31;6.52;77.03
76384;SHT30;65204;48.606;7.598;2022-12-05T02:07:01;6.53;77.04
76384;SHT30;65204;48.606;7.598;2022-12-05T02:07:32;6.54;77.08
76384;SHT30;65204;48.606;7.598;2022-12-05T02:08:07;6.53;77.21
76384;SHT30;65204;48.606;7.598;2022-12-05T02:08:39;6.53;77.05
76384;SHT30;65204;48.606;7.598;2022-12-05T02:09:10;6.52;77.04
76384;SHT30;65204;48.606;7.598;2022-12-05T02:09:40;6.52;77.14
76384;SHT30;65204;48.606;7.598;2022-12-05T02:10:11;6.52;77.21
76384;SHT30;65204;48.606;7.598;2022-12-05T02:10:47;6.49;77.17
76384;SHT30;65204;48.606;7.598;2022-12-05T02:11:19;6.52;77.15
76384;SHT30;65204;48.606;7.598;2022-12-05T02:11:57;6.53;77.22
76384;SHT30;65204;48.606;7.598;2022-12-05T02:12:28;6.50;77.29
76384;SHT30;65204;48.606;7.598;2022-12-05T02:13:10;6.49;77.31
76384;SHT30;65204;48.606;7.598;2022-12-05T02:15:32;6.48;77.27
76384;SHT30;65204;48.606;7.598;2022-12-05T02:18:09;6.46;77.29
76384;SHT30;65204;48.606;7.598;2022-12-05T02:19:12;6.43;77.36
76384;SHT30;65204;48.606;7.598;2022-12-05T02:20:02;6.48;77.52
76384;SHT30;65204;48.606;7.598;2022-12-05T02:25:15;6.48;77.18
76384;SHT30;65204;48.606;7.598;2022-12-05T02:29:59;6.46;77.44
76384;SHT30;65204;48.606;7.598;2022-12-05T02:30:40;6.48;77.31
76384;SHT30;65204;48.606;7.598;2022-12-05T02:31:18;6.48;77.30
76384;SHT30;65204;48.606;7.598;2022-12-05T02:32:55;6.46;77.35
76384;SHT30;65204;48.606;7.598;2022-12-05T02:33:36;6.45;77.52
76384;SHT30;65204;48.606;7.598;2022-12-05T02:34:46;6.49;77.42
76384;SHT30;65204;48.606;7.598;2022-12-05T02:37:02;6.50;77.29
76384;SHT30;65204;48.606;7.598;2022-12-05T02:37:43;6.49;77.33
76384;SHT30;65204;48.606;7.598;2022-12-05T02:39:02;6.49;77.17
76384;SHT30;65204;48.606;7.598;2022-12-05T02:40:13;6.49;77.23
76384;SHT30;65204;48.606;7.598;2022-12-05T02:41:33;6.49;77.36
76384;SHT30;65204;48.606;7.598;2022-12-05T02:42:12;6.50;77.29
76384;SHT30;65204;48.606;7.598;2022-12-05T02:42:57;6.49;77.24
76384;SHT30;65204;48.606;7.598;2022-12-05T02:43:31;6.50;77.34
76384;SHT30;65204;48.606;7.598;2022-12-05T02:44:59;6.50;76.95
76384;SHT30;65204;48.606;7.598;2022-12-05T02:45:34;6.52;76.95
76384;SHT30;65204;48.606;7.598;2022-12-05T02:46:11;6.52;77.14
76384;SHT30;65204;48.606;7.598;2022-12-05T02:46:44;6.50;77.28
76384;SHT30;65204;48.606;7.598;2022-12-05T02:47:20;6.49;77.24
76384;SHT30;65204;48.606;7.598;2022-12-05T02:47:54;6.49;77.27
76384;SHT30;65204;48.606;7.598;2022-12-05T02:48:27;6.48;77.19
76384;SHT30;65204;48.606;7.598;2022-12-05T02:49:03;6.49;77.20
76384;SHT30;65204;48.606;7.598;2022-12-05T02:49:35;6.46;77.26
76384;SHT30;65204;48.606;7.598;2022-12-05T02:50:08;6.49;77.26
76384;SHT30;65204;48.606;7.598;2022-12-05T02:50:40;6.50;77.43
76384;SHT30;65204;48.606;7.598;2022-12-05T02:51:14;6.48;77.35
76384;SHT30;65204;48.606;7.598;2022-12-05T02:51:49;6.45;77.39
76384;SHT30;65204;48.606;7.598;2022-12-05T02:52:21;6.46;77.31
76384;SHT30;65204;48.606;7.598;2022-12-05T02:52:57;6.46;77.33
76384;SHT30;65204;48.606;7.598;2022-12-05T02:53:30;6.42;77.31
76384;SHT30;65204;48.606;7.598;2022-12-05T02:54:04;6.45;77.36
76384;SHT30;65204;48.606;7.598;2022-12-05T02:54:39;6.46;77.39
76384;SHT30;65204;48.606;7.598;2022-12-05T02:55:12;6.43;77.35
76384;SHT30;65204;48.606;7.598;2022-12-05T02:55:44;6.46;77.31
76384;SHT30;65204;48.606;7.598;2022-12-05T02:56:16;6.46;77.09
76384;SHT30;65204;48.606;7.598;2022-12-05T02:56:48;6.45;76.85
76384;SHT30;65204;48.606;7.598;2022-12-05T02:57:20;6.45;76.88
76384;SHT30;65204;48.606;7.598;2022-12-05T02:57:54;6.49;76.96
76384;SHT30;65204;48.606;7.598;2022-12-05T02:58:36;6.48;76.87
76384;SHT30;65204;48.606;7.598;2022-12-05T02:59:08;6.48;76.96
76384;SHT30;65204;48.606;7.598;2022-12-05T02:59:38;6.48;77.16
76384;SHT30;65204;48.606;7.598;2022-12-05T03:00:09;6.49;77.03
76384;SHT30;65204;48.606;7.598;2022-12-05T03:00:43;6.49;77.14
76384;SHT30;65204;48.606;7.598;2022-12-05T03:01:14;6.48;77.09
76384;SHT30;65204;48.606;7.598;2022-12-05T03:01:45;6.48;77.04
76384;SHT30;65204;48.606;7.598;2022-12-05T03:02:28;6.49;77.03
76384;SHT30;65204;48.606;7.598;2022-12-05T03:03:00;6.46;77.20
76384;SHT30;65204;48.606;7.598;2022-12-05T03:03:32;6.49;77.15
76384;SHT30;65204;48.606;7.598;2022-12-05T03:04:04;6.49;77.00
76384;SHT30;65204;48.606;7.598;2022-12-05T03:04:36;6.49;77.05
76384;SHT30;65204;48.606;7.598;2022-12-05T03:06:00;6.48;77.01
76384;SHT30;65204;48.606;7.598;2022-12-05T03:07:28;6.50;77.00
76384;SHT30;65204;48.606;7.598;2022-12-05T03:08:01;6.50;76.96
76384;SHT30;65204;48.606;7.598;2022-12-05T03:08:40;6.49;76.98
76384;SHT30;65204;48.606;7.598;2022-12-05T03:09:17;6.46;76.98
76384;SHT30;65204;48.606;7.598;2022-12-05T03:09:56;6.49;77.05
76384;SHT30;65204;48.606;7.598;2022-12-05T03:10:30;6.45;77.07
76384;SHT30;65204;48.606;7.598;2022-12-05T03:11:02;6.43;77.11
76384;SHT30;65204;48.606;7.598;2022-12-05T03:11:46;6.45;77.22
76384;SHT30;65204;48.606;7.598;2022-12-05T03:12:22;6.41;77.28
76384;SHT30;65204;48.606;7.598;2022-12-05T03:13:06;6.39;77.37
76384;SHT30;65204;48.606;7.598;2022-12-05T03:13:51;6.41;77.40
76384;SHT30;65204;48.606;7.598;2022-12-05T03:14:37;6.41;77.36
76384;SHT30;65204;48.606;7.598;2022-12-05T03:15:15;6.39;77.40
76384;SHT30;65204;48.606;7.598;2022-12-05T03:15:50;6.41;77.40
76384;SHT30;65204;48.606;7.598;2022-12-05T03:16:31;6.35;77.38
76384;SHT30;65204;48.606;7.598;2022-12-05T03:17:05;6.36;77.38
76384;SHT30;65204;48.606;7.598;2022-12-05T03:17:52;6.38;77.52
76384;SHT30;65204;48.606;7.598;2022-12-05T03:18:46;6.33;77.49
76384;SHT30;65204;48.606;7.598;2022-12-05T03:20:28;6.36;77.50
76384;SHT30;65204;48.606;7.598;2022-12-05T03:21:10;6.33;77.47
76384;SHT30;65204;48.606;7.598;2022-12-05T03:21:55;6.36;77.52
76384;SHT30;65204;48.606;7.598;2022-12-05T03:22:32;6.36;77.35
76384;SHT30;65204;48.606;7.598;2022-12-05T03:23:39;6.32;77.48
76384;SHT30;65204;48.606;7.598;2022-12-05T03:24:12;6.35;77.48
76384;SHT30;65204;48.606;7.598;2022-12-05T03:24:43;6.33;77.55
76384;SHT30;65204;48.606;7.598;2022-12-05T03:25:15;6.31;77.59
76384;SHT30;65204;48.606;7.598;2022-12-05T03:26:17;6.31;77.56
76384;SHT30;65204;48.606;7.598;2022-12-05T03:27:02;6.31;77.59
76384;SHT30;65204;48.606;7.598;2022-12-05T03:27:46;6.29;77.52
76384;SHT30;65204;48.606;7.598;2022-12-05T03:29:21;6.29;77.65
76384;SHT30;65204;48.606;7.598;2022-12-05T03:30:34;6.28;77.68
76384;SHT30;65204;48.606;7.598;2022-12-05T03:31:10;6.31;77.70
76384;SHT30;65204;48.606;7.598;2022-12-05T03:31:56;6.29;77.53
76384;SHT30;65204;48.606;7.598;2022-12-05T03:32:41;6.31;77.53
76384;SHT30;65204;48.606;7.598;2022-12-05T03:33:14;6.33;77.48
76384;SHT30;65204;48.606;7.598;2022-12-05T03:33:49;6.31;77.26
76384;SHT30;65204;48.606;7.598;2022-12-05T03:34:30;6.32;77.13
76384;SHT30;65204;48.606;7.598;2022-12-05T03:36:28;6.35;77.30
76384;SHT30;65204;48.606;7.598;2022-12-05T03:37:06;6.32;77.31
76384;SHT30;65204;48.606;7.598;2022-12-05T03:39:02;6.33;76.90
76384;SHT30;65204;48.606;7.598;2022-12-05T03:39:38;6.33;76.85
76384;SHT30;65204;48.606;7.598;2022-12-05T03:42:13;6.35;77.00
76384;SHT30;65204;48.606;7.598;2022-12-05T03:42:53;6.36;77.10
76384;SHT30;65204;48.606;7.598;2022-12-05T03:43:53;6.35;77.18
76384;SHT30;65204;48.606;7.598;2022-12-05T03:44:56;6.35;77.13
76384;SHT30;65204;48.606;7.598;2022-12-05T03:45:45;6.33;77.19
76384;SHT30;65204;48.606;7.598;2022-12-05T03:47:00;6.32;77.23
76384;SHT30;65204;48.606;7.598;2022-12-05T03:48:33;6.31;77.20
76384;SHT30;65204;48.606;7.598;2022-12-05T03:49:18;6.33;77.14
76384;SHT30;65204;48.606;7.598;2022-12-05T03:49:53;6.32;77.13
76384;SHT30;65204;48.606;7.598;2022-12-05T03:50:28;6.35;77.12
76384;SHT30;65204;48.606;7.598;2022-12-05T03:50:59;6.31;77.20
76384;SHT30;65204;48.606;7.598;2022-12-05T03:51:37;6.32;77.11
76384;SHT30;65204;48.606;7.598;2022-12-05T03:52:19;6.31;77.25
76384;SHT30;65204;48.606;7.598;2022-12-05T03:53:04;6.29;77.26
76384;SHT30;65204;48.606;7.598;2022-12-05T03:53:41;6.29;77.26
76384;SHT30;65204;48.606;7.598;2022-12-05T03:54:24;6.26;77.05
76384;SHT30;65204;48.606;7.598;2022-12-05T03:54:57;6.28;77.12
76384;SHT30;65204;48.606;7.598;2022-12-05T03:55:31;6.28;77.14
76384;SHT30;65204;48.606;7.598;2022-12-05T03:56:09;6.29;77.17
76384;SHT30;65204;48.606;7.598;2022-12-05T03:56:46;6.26;77.12
76384;SHT30;65204;48.606;7.598;2022-12-05T03:57:31;6.25;77.12
76384;SHT30;65204;48.606;7.598;2022-12-05T03:58:16;6.25;77.11
76384;SHT30;65204;48.606;7.598;2022-12-05T03:58:54;6.25;77.13
76384;SHT30;65204;48.606;7.598;2022-12-05T04:00:08;6.22;77.13
76384;SHT30;65204;48.606;7.598;2022-12-05T04:00:42;6.21;77.15
76384;SHT30;65204;48.606;7.598;2022-12-05T04:01:15;6.22;77.11
76384;SHT30;65204;48.606;7.598;2022-12-05T04:01:47;6.19;77.11
76384;SHT30;65204;48.606;7.598;2022-12-05T04:02:24;6.21;77.05
76384;SHT30;65204;48.606;7.598;2022-12-05T04:03:19;6.21;77.05
76384;SHT30;65204;48.606;7.598;2022-12-05T04:03:56;6.19;76.85
76384;SHT30;65204;48.606;7.598;2022-12-05T04:04:33;6.22;76.81
76384;SHT30;65204;48.606;7.598;2022-12-05T04:05:08;6.21;76.75
76384;SHT30;65204;48.606;7.598;2022-12-05T04:06:00;6.19;76.85
76384;SHT30;65204;48.606;7.598;2022-12-05T04:06:36;6.19;76.87
76384;SHT30;65204;48.606;7.598;2022-12-05T04:07:08;6.19;76.75
76384;SHT30;65204;48.606;7.598;2022-12-05T04:07:41;6.19;76.77
76384;SHT30;65204;48.606;7.598;2022-12-05T04:08:19;6.18;76.80